sensor_id;sensor_type;location;lat;lon;timestamp;P1;durP1;ratioP1;P2;durP2;ratioP2
5277;SDS011;2662;51.194;6.614;2023-06-14T00:00:33;6.33;;;5.60;;
5277;SDS011;2662;51.194;6.614;2023-06-14T00:03:00;12.63;;;6.33;;
5277;SDS011;2662;51.194;6.614;2023-06-14T00:05:28;7.00;;;5.83;;
5277;SDS011;2662;51.194;6.614;2023-06-14T00:07:58;10.23;;;5.97;;
5277;SDS011;2662;51.194;6.614;2023-06-14T00:10:27;8.70;;;5.47;;
5277;SDS011;2662;51.194;6.614;2023-06-14T00:12:56;13.77;;;5.60;;
5277;SDS011;2662;51.194;6.614;2023-06-14T00:15:24;8.37;;;5.90;;
5277;SDS011;2662;51.194;6.614;2023-06-14T00:17:51;7.87;;;5.87;;
5277;SDS011;2662;51.194;6.614;2023-06-14T00:20:17;9.30;;;6.10;;
5277;SDS011;2662;51.194;6.614;2023-06-14T00:22:44;8.47;;;5.97;;
5277;SDS011;2662;51.194;6.614;2023-06-14T00:25:11;12.70;;;5.60;;
5277;SDS011;2662;51.194;6.614;2023-06-14T00:27:39;17.17;;;6.00;;
5277;SDS011;2662;51.194;6.614;2023-06-14T00:30:06;10.10;;;5.93;;
5277;SDS011;2662;51.194;6.614;2023-06-14T00:32:34;6.73;;;5.77;;
5277;SDS011;2662;51.194;6.614;2023-06-14T00:35:00;8.10;;;6.40;;
5277;SDS011;2662;51.194;6.614;2023-06-14T00:37:27;11.90;;;5.60;;
5277;SDS011;2662;51.194;6.614;2023-06-14T00:39:54;10.37;;;5.60;;
5277;SDS011;2662;51.194;6.614;2023-06-14T00:42:24;7.40;;;5.57;;
5277;SDS011;2662;51.194;6.614;2023-06-14T00:44:52;8.40;;;5.90;;
5277;SDS011;2662;51.194;6.614;2023-06-14T00:47:19;10.07;;;6.10;;
5277;SDS011;2662;51.194;6.614;2023-06-14T00:49:46;8.73;;;5.80;;
5277;SDS011;2662;51.194;6.614;2023-06-14T00:52:14;7.73;;;5.80;;
5277;SDS011;2662;51.194;6.614;2023-06-14T00:54:41;8.20;;;5.30;;
5277;SDS011;2662;51.194;6.614;2023-06-14T00:57:08;11.00;;;5.80;;
5277;SDS011;2662;51.194;6.614;2023-06-14T00:59:37;8.60;;;6.00;;
5277;SDS011;2662;51.194;6.614;2023-06-14T01:02:09;16.53;;;5.73;;
5277;SDS011;2662;51.194;6.614;2023-06-14T01:04:36;9.30;;;6.10;;
5277;SDS011;2662;51.194;6.614;2023-06-14T01:07:05;9.60;;;5.70;;
5277;SDS011;2662;51.194;6.614;2023-06-14T01:09:43;7.20;;;5.80;;
5277;SDS011;2662;51.194;6.614;2023-06-14T01:12:19;12.17;;;5.60;;
5277;SDS011;2662;51.194;6.614;2023-06-14T01:14:54;8.33;;;6.23;;
5277;SDS011;2662;51.194;6.614;2023-06-14T01:17:23;12.50;;;6.47;;
5277;SDS011;2662;51.194;6.614;2023-06-14T01:19:52;9.03;;;6.10;;
5277;SDS011;2662;51.194;6.614;2023-06-14T01:22:23;10.20;;;6.63;;
5277;SDS011;2662;51.194;6.614;2023-06-14T01:24:51;7.37;;;5.30;;
5277;SDS011;2662;51.194;6.614;2023-06-14T01:27:20;11.27;;;6.20;;
5277;SDS011;2662;51.194;6.614;2023-06-14T01:29:49;9.53;;;6.00;;
5277;SDS011;2662;51.194;6.614;2023-06-14T01:32:17;8.70;;;6.50;;
5277;SDS011;2662;51.194;6.614;2023-06-14T01:34:44;8.57;;;5.33;;
5277;SDS011;2662;51.194;6.614;2023-06-14T01:37:11;11.50;;;6.10;;
5277;SDS011;2662;51.194;6.614;2023-06-14T01:39:39;9.03;;;6.63;;
5277;SDS011;2662;51.194;6.614;2023-06-14T01:42:09;8.87;;;6.20;;
5277;SDS011;2662;51.194;6.614;2023-06-14T01:44:37;8.93;;;6.63;;
5277;SDS011;2662;51.194;6.614;2023-06-14T01:47:04;9.50;;;6.13;;
5277;SDS011;2662;51.194;6.614;2023-06-14T01:49:33;7.37;;;5.80;;
5277;SDS011;2662;51.194;6.614;2023-06-14T01:52:00;7.93;;;5.93;;
5277;SDS011;2662;51.194;6.614;2023-06-14T01:54:26;9.17;;;5.53;;
5277;SDS011;2662;51.194;6.614;2023-06-14T01:56:54;20.27;;;6.40;;
5277;SDS011;2662;51.194;6.614;2023-06-14T01:59:22;10.63;;;5.90;;
5277;SDS011;2662;51.194;6.614;2023-06-14T02:01:49;11.70;;;6.73;;
5277;SDS011;2662;51.194;6.614;2023-06-14T02:04:16;9.93;;;6.53;;
5277;SDS011;2662;51.194;6.614;2023-06-14T02:06:43;15.23;;;6.80;;
5277;SDS011;2662;51.194;6.614;2023-06-14T02:09:09;10.47;;;6.33;;
5277;SDS011;2662;51.194;6.614;2023-06-14T02:11:36;8.63;;;6.10;;
5277;SDS011;2662;51.194;6.614;2023-06-14T02:14:03;7.90;;;5.70;;
5277;SDS011;2662;51.194;6.614;2023-06-14T02:16:33;14.03;;;6.73;;
5277;SDS011;2662;51.194;6.614;2023-06-14T02:19:00;8.13;;;6.10;;
5277;SDS011;2662;51.194;6.614;2023-06-14T02:21:27;10.00;;;6.60;;
5277;SDS011;2662;51.194;6.614;2023-06-14T02:23:54;10.90;;;6.47;;
5277;SDS011;2662;51.194;6.614;2023-06-14T02:26:21;21.20;;;6.70;;
5277;SDS011;2662;51.194;6.614;2023-06-14T02:28:48;9.00;;;6.43;;
5277;SDS011;2662;51.194;6.614;2023-06-14T02:31:15;12.93;;;6.40;;
5277;SDS011;2662;51.194;6.614;2023-06-14T02:33:43;9.00;;;6.17;;
5277;SDS011;2662;51.194;6.614;2023-06-14T02:36:10;10.53;;;6.40;;
5277;SDS011;2662;51.194;6.614;2023-06-14T02:38:37;12.80;;;6.30;;
5277;SDS011;2662;51.194;6.614;2023-06-14T02:41:03;12.27;;;6.40;;
5277;SDS011;2662;51.194;6.614;2023-06-14T02:43:31;8.07;;;6.20;;
5277;SDS011;2662;51.194;6.614;2023-06-14T02:45:57;8.00;;;6.10;;
5277;SDS011;2662;51.194;6.614;2023-06-14T02:48:24;27.87;;;6.83;;
5277;SDS011;2662;51.194;6.614;2023-06-14T02:50:52;12.43;;;5.53;;
5277;SDS011;2662;51.194;6.614;2023-06-14T02:53:19;8.73;;;5.93;;
5277;SDS011;2662;51.194;6.614;2023-06-14T02:55:45;9.37;;;6.40;;
5277;SDS011;2662;51.194;6.614;2023-06-14T02:58:13;8.60;;;5.97;;
5277;SDS011;2662;51.194;6.614;2023-06-14T03:00:41;9.90;;;5.90;;
5277;SDS011;2662;51.194;6.614;2023-06-14T03:03:08;10.77;;;5.93;;
5277;SDS011;2662;51.194;6.614;2023-06-14T03:05:38;7.87;;;6.10;;
5277;SDS011;2662;51.194;6.614;2023-06-14T03:08:12;10.47;;;6.13;;
5277;SDS011;2662;51.194;6.614;2023-06-14T03:10:41;15.20;;;6.37;;
5277;SDS011;2662;51.194;6.614;2023-06-14T03:13:09;12.30;;;6.30;;
5277;SDS011;2662;51.194;6.614;2023-06-14T03:15:37;10.50;;;6.40;;
5277;SDS011;2662;51.194;6.614;2023-06-14T03:18:06;10.20;;;6.20;;
5277;SDS011;2662;51.194;6.614;2023-06-14T03:20:33;8.97;;;6.57;;
5277;SDS011;2662;51.194;6.614;2023-06-14T03:23:01;13.90;;;6.27;;
5277;SDS011;2662;51.194;6.614;2023-06-14T03:25:29;18.43;;;6.53;;
5277;SDS011;2662;51.194;6.614;2023-06-14T03:27:56;9.67;;;6.30;;
5277;SDS011;2662;51.194;6.614;2023-06-14T03:30:23;12.50;;;6.63;;
5277;SDS011;2662;51.194;6.614;2023-06-14T03:32:49;11.73;;;6.70;;
5277;SDS011;2662;51.194;6.614;2023-06-14T03:35:17;8.33;;;6.30;;
5277;SDS011;2662;51.194;6.614;2023-06-14T03:37:44;9.37;;;6.77;;
5277;SDS011;2662;51.194;6.614;2023-06-14T03:40:11;8.93;;;6.10;;
5277;SDS011;2662;51.194;6.614;2023-06-14T03:42:40;10.53;;;6.77;;
5277;SDS011;2662;51.194;6.614;2023-06-14T03:45:07;8.63;;;6.50;;
5277;SDS011;2662;51.194;6.614;2023-06-14T03:47:34;13.83;;;6.47;;
5277;SDS011;2662;51.194;6.614;2023-06-14T03:50:01;10.13;;;6.20;;
5277;SDS011;2662;51.194;6.614;2023-06-14T03:52:29;10.40;;;5.97;;
5277;SDS011;2662;51.194;6.614;2023-06-14T03:54:56;13.43;;;5.90;;
5277;SDS011;2662;51.194;6.614;2023-06-14T03:57:25;8.63;;;6.37;;
5277;SDS011;2662;51.194;6.614;2023-06-14T03:59:53;14.67;;;6.27;;
5277;SDS011;2662;51.194;6.614;2023-06-14T04:02:20;14.80;;;6.23;;
5277;SDS011;2662;51.194;6.614;2023-06-14T04:04:47;8.17;;;5.63;;
5277;SDS011;2662;51.194;6.614;2023-06-14T04:07:14;9.30;;;6.73;;
5277;SDS011;2662;51.194;6.614;2023-06-14T04:09:44;9.93;;;6.27;;
5277;SDS011;2662;51.194;6.614;2023-06-14T04:12:11;13.47;;;6.70;;
5277;SDS011;2662;51.194;6.614;2023-06-14T04:14:38;12.57;;;6.30;;
5277;SDS011;2662;51.194;6.614;2023-06-14T04:17:07;12.50;;;6.77;;
5277;SDS011;2662;51.194;6.614;2023-06-14T04:19:33;11.33;;;6.30;;
5277;SDS011;2662;51.194;6.614;2023-06-14T04:22:00;7.57;;;6.17;;
5277;SDS011;2662;51.194;6.614;2023-06-14T04:24:27;10.93;;;6.37;;
5277;SDS011;2662;51.194;6.614;2023-06-14T04:26:57;15.73;;;6.33;;
5277;SDS011;2662;51.194;6.614;2023-06-14T04:29:26;11.77;;;6.70;;
5277;SDS011;2662;51.194;6.614;2023-06-14T04:31:54;8.67;;;6.13;;
5277;SDS011;2662;51.194;6.614;2023-06-14T04:34:25;7.90;;;5.90;;
5277;SDS011;2662;51.194;6.614;2023-06-14T04:36:55;10.73;;;5.60;;
5277;SDS011;2662;51.194;6.614;2023-06-14T04:39:23;7.57;;;6.00;;
5277;SDS011;2662;51.194;6.614;2023-06-14T04:41:51;9.90;;;5.77;;
5277;SDS011;2662;51.194;6.614;2023-06-14T04:44:21;11.30;;;5.90;;
5277;SDS011;2662;51.194;6.614;2023-06-14T04:46:55;13.27;;;6.40;;
5277;SDS011;2662;51.194;6.614;2023-06-14T04:49:25;13.70;;;6.10;;
5277;SDS011;2662;51.194;6.614;2023-06-14T04:51:52;7.07;;;6.10;;
5277;SDS011;2662;51.194;6.614;2023-06-14T04:54:22;11.73;;;6.93;;
5277;SDS011;2662;51.194;6.614;2023-06-14T04:56:50;11.23;;;6.33;;
5277;SDS011;2662;51.194;6.614;2023-06-14T04:59:18;10.47;;;6.10;;
5277;SDS011;2662;51.194;6.614;2023-06-14T05:01:45;12.33;;;5.80;;
5277;SDS011;2662;51.194;6.614;2023-06-14T05:04:13;15.00;;;5.83;;
5277;SDS011;2662;51.194;6.614;2023-06-14T05:06:41;8.97;;;5.73;;
5277;SDS011;2662;51.194;6.614;2023-06-14T05:09:09;10.93;;;5.57;;
5277;SDS011;2662;51.194;6.614;2023-06-14T05:11:36;10.03;;;5.90;;
5277;SDS011;2662;51.194;6.614;2023-06-14T05:14:03;12.30;;;6.80;;
5277;SDS011;2662;51.194;6.614;2023-06-14T05:16:31;10.20;;;5.60;;
5277;SDS011;2662;51.194;6.614;2023-06-14T05:18:57;15.47;;;5.90;;
5277;SDS011;2662;51.194;6.614;2023-06-14T05:21:24;9.97;;;5.53;;
5277;SDS011;2662;51.194;6.614;2023-06-14T05:23:52;8.93;;;5.80;;
5277;SDS011;2662;51.194;6.614;2023-06-14T05:26:19;8.43;;;5.67;;
5277;SDS011;2662;51.194;6.614;2023-06-14T05:28:45;12.43;;;5.23;;
5277;SDS011;2662;51.194;6.614;2023-06-14T05:31:12;18.67;;;5.73;;
5277;SDS011;2662;51.194;6.614;2023-06-14T05:33:39;12.93;;;5.83;;
5277;SDS011;2662;51.194;6.614;2023-06-14T05:36:06;12.93;;;5.77;;
5277;SDS011;2662;51.194;6.614;2023-06-14T05:38:32;10.43;;;5.50;;
5277;SDS011;2662;51.194;6.614;2023-06-14T05:41:00;8.53;;;6.20;;
5277;SDS011;2662;51.194;6.614;2023-06-14T05:43:28;19.47;;;5.80;;
5277;SDS011;2662;51.194;6.614;2023-06-14T05:45:54;8.30;;;6.33;;
5277;SDS011;2662;51.194;6.614;2023-06-14T05:48:21;8.67;;;5.67;;
5277;SDS011;2662;51.194;6.614;2023-06-14T05:50:48;19.23;;;5.87;;
5277;SDS011;2662;51.194;6.614;2023-06-14T05:53:14;13.53;;;5.37;;
5277;SDS011;2662;51.194;6.614;2023-06-14T05:55:41;8.23;;;5.50;;
5277;SDS011;2662;51.194;6.614;2023-06-14T05:58:09;7.03;;;5.27;;
5277;SDS011;2662;51.194;6.614;2023-06-14T06:00:38;9.57;;;5.10;;
5277;SDS011;2662;51.194;6.614;2023-06-14T06:03:05;15.40;;;5.20;;
5277;SDS011;2662;51.194;6.614;2023-06-14T06:05:34;7.90;;;4.83;;
5277;SDS011;2662;51.194;6.614;2023-06-14T06:08:00;7.33;;;4.27;;
5277;SDS011;2662;51.194;6.614;2023-06-14T06:10:27;6.97;;;4.23;;
5277;SDS011;2662;51.194;6.614;2023-06-14T06:12:54;10.10;;;4.80;;
5277;SDS011;2662;51.194;6.614;2023-06-14T06:15:22;11.03;;;4.67;;
5277;SDS011;2662;51.194;6.614;2023-06-14T06:17:49;14.60;;;4.17;;
5277;SDS011;2662;51.194;6.614;2023-06-14T06:20:16;9.13;;;4.30;;
5277;SDS011;2662;51.194;6.614;2023-06-14T06:22:43;6.57;;;3.80;;
5277;SDS011;2662;51.194;6.614;2023-06-14T06:25:09;4.17;;;3.70;;
5277;SDS011;2662;51.194;6.614;2023-06-14T06:27:37;8.50;;;4.13;;
5277;SDS011;2662;51.194;6.614;2023-06-14T06:30:05;13.20;;;4.00;;
5277;SDS011;2662;51.194;6.614;2023-06-14T06:32:34;17.43;;;3.40;;
5277;SDS011;2662;51.194;6.614;2023-06-14T06:35:01;6.63;;;3.83;;
5277;SDS011;2662;51.194;6.614;2023-06-14T06:37:31;11.60;;;3.50;;
5277;SDS011;2662;51.194;6.614;2023-06-14T06:39:57;9.40;;;3.77;;
5277;SDS011;2662;51.194;6.614;2023-06-14T06:42:24;5.53;;;3.57;;
5277;SDS011;2662;51.194;6.614;2023-06-14T06:44:51;8.70;;;4.40;;
5277;SDS011;2662;51.194;6.614;2023-06-14T06:47:18;11.97;;;4.17;;
5277;SDS011;2662;51.194;6.614;2023-06-14T06:49:46;11.43;;;4.00;;
5277;SDS011;2662;51.194;6.614;2023-06-14T06:52:13;6.93;;;4.33;;
5277;SDS011;2662;51.194;6.614;2023-06-14T06:54:39;6.93;;;4.00;;
5277;SDS011;2662;51.194;6.614;2023-06-14T06:57:06;13.70;;;4.63;;
5277;SDS011;2662;51.194;6.614;2023-06-14T06:59:33;5.13;;;4.00;;
5277;SDS011;2662;51.194;6.614;2023-06-14T07:02:00;8.77;;;3.90;;
5277;SDS011;2662;51.194;6.614;2023-06-14T07:04:26;5.20;;;3.70;;
5277;SDS011;2662;51.194;6.614;2023-06-14T07:06:54;5.77;;;3.30;;
5277;SDS011;2662;51.194;6.614;2023-06-14T07:09:21;5.60;;;3.17;;
5277;SDS011;2662;51.194;6.614;2023-06-14T07:11:49;5.83;;;3.20;;
5277;SDS011;2662;51.194;6.614;2023-06-14T07:14:17;7.30;;;2.87;;
5277;SDS011;2662;51.194;6.614;2023-06-14T07:16:44;7.50;;;2.77;;
5277;SDS011;2662;51.194;6.614;2023-06-14T07:19:11;3.57;;;2.90;;
5277;SDS011;2662;51.194;6.614;2023-06-14T07:21:38;5.27;;;3.00;;
5277;SDS011;2662;51.194;6.614;2023-06-14T07:24:06;8.57;;;2.57;;
5277;SDS011;2662;51.194;6.614;2023-06-14T07:26:33;9.93;;;2.87;;
5277;SDS011;2662;51.194;6.614;2023-06-14T07:29:01;10.33;;;2.70;;
5277;SDS011;2662;51.194;6.614;2023-06-14T07:31:28;7.30;;;2.60;;
5277;SDS011;2662;51.194;6.614;2023-06-14T07:33:55;2.43;;;2.20;;
5277;SDS011;2662;51.194;6.614;2023-06-14T07:36:22;9.93;;;2.33;;
5277;SDS011;2662;51.194;6.614;2023-06-14T07:38:48;6.13;;;2.20;;
5277;SDS011;2662;51.194;6.614;2023-06-14T07:41:17;3.57;;;2.20;;
5277;SDS011;2662;51.194;6.614;2023-06-14T07:43:43;11.13;;;2.80;;
5277;SDS011;2662;51.194;6.614;2023-06-14T07:46:10;7.50;;;1.90;;
5277;SDS011;2662;51.194;6.614;2023-06-14T07:48:37;3.80;;;1.60;;
5277;SDS011;2662;51.194;6.614;2023-06-14T07:51:04;2.97;;;2.07;;
5277;SDS011;2662;51.194;6.614;2023-06-14T07:53:31;7.53;;;1.90;;
5277;SDS011;2662;51.194;6.614;2023-06-14T07:55:57;9.80;;;2.50;;
5277;SDS011;2662;51.194;6.614;2023-06-14T07:58:26;3.50;;;2.33;;
5277;SDS011;2662;51.194;6.614;2023-06-14T08:00:53;7.33;;;2.30;;
5277;SDS011;2662;51.194;6.614;2023-06-14T08:03:19;3.10;;;2.03;;
5277;SDS011;2662;51.194;6.614;2023-06-14T08:05:47;3.13;;;1.87;;
5277;SDS011;2662;51.194;6.614;2023-06-14T08:08:14;2.20;;;2.00;;
5277;SDS011;2662;51.194;6.614;2023-06-14T08:10:41;2.23;;;1.80;;
5277;SDS011;2662;51.194;6.614;2023-06-14T08:13:07;2.10;;;1.97;;
5277;SDS011;2662;51.194;6.614;2023-06-14T08:15:36;3.13;;;1.63;;
5277;SDS011;2662;51.194;6.614;2023-06-14T08:18:03;3.00;;;1.53;;
5277;SDS011;2662;51.194;6.614;2023-06-14T08:20:30;4.30;;;1.57;;
5277;SDS011;2662;51.194;6.614;2023-06-14T08:22:56;6.70;;;1.50;;
5277;SDS011;2662;51.194;6.614;2023-06-14T08:25:23;1.90;;;1.77;;
5277;SDS011;2662;51.194;6.614;2023-06-14T08:27:50;7.33;;;1.60;;
5277;SDS011;2662;51.194;6.614;2023-06-14T08:30:17;1.97;;;1.73;;
5277;SDS011;2662;51.194;6.614;2023-06-14T08:32:45;11.70;;;2.17;;
5277;SDS011;2662;51.194;6.614;2023-06-14T08:35:12;14.13;;;2.00;;
5277;SDS011;2662;51.194;6.614;2023-06-14T08:37:39;3.90;;;1.90;;
5277;SDS011;2662;51.194;6.614;2023-06-14T08:40:07;5.33;;;1.67;;
5277;SDS011;2662;51.194;6.614;2023-06-14T08:42:44;2.83;;;1.70;;
5277;SDS011;2662;51.194;6.614;2023-06-14T08:45:11;1.60;;;1.47;;
5277;SDS011;2662;51.194;6.614;2023-06-14T08:47:38;4.17;;;1.80;;
5277;SDS011;2662;51.194;6.614;2023-06-14T08:50:07;2.60;;;1.77;;
5277;SDS011;2662;51.194;6.614;2023-06-14T08:52:38;4.83;;;1.70;;
5277;SDS011;2662;51.194;6.614;2023-06-14T08:55:10;3.50;;;1.73;;
5277;SDS011;2662;51.194;6.614;2023-06-14T08:57:37;2.50;;;1.80;;
5277;SDS011;2662;51.194;6.614;2023-06-14T09:00:06;2.50;;;1.90;;
5277;SDS011;2662;51.194;6.614;2023-06-14T09:02:37;1.90;;;1.80;;
5277;SDS011;2662;51.194;6.614;2023-06-14T09:05:09;4.73;;;2.30;;
5277;SDS011;2662;51.194;6.614;2023-06-14T09:07:38;2.10;;;1.90;;
5277;SDS011;2662;51.194;6.614;2023-06-14T09:10:07;3.43;;;1.93;;
5277;SDS011;2662;51.194;6.614;2023-06-14T09:12:35;3.17;;;2.10;;
5277;SDS011;2662;51.194;6.614;2023-06-14T09:15:02;2.20;;;2.00;;
5277;SDS011;2662;51.194;6.614;2023-06-14T09:17:32;11.33;;;2.53;;
5277;SDS011;2662;51.194;6.614;2023-06-14T09:20:00;3.33;;;1.90;;
5277;SDS011;2662;51.194;6.614;2023-06-14T09:22:31;4.10;;;1.50;;
5277;SDS011;2662;51.194;6.614;2023-06-14T09:24:59;1.80;;;1.70;;
5277;SDS011;2662;51.194;6.614;2023-06-14T09:27:26;3.00;;;1.60;;
5277;SDS011;2662;51.194;6.614;2023-06-14T09:29:53;7.37;;;2.27;;
5277;SDS011;2662;51.194;6.614;2023-06-14T09:32:20;9.10;;;2.10;;
5277;SDS011;2662;51.194;6.614;2023-06-14T09:34:47;4.60;;;1.93;;
5277;SDS011;2662;51.194;6.614;2023-06-14T09:37:17;1.90;;;1.77;;
5277;SDS011;2662;51.194;6.614;2023-06-14T09:39:54;10.53;;;1.80;;
5277;SDS011;2662;51.194;6.614;2023-06-14T09:42:20;3.90;;;1.80;;
5277;SDS011;2662;51.194;6.614;2023-06-14T09:44:48;2.90;;;1.93;;
5277;SDS011;2662;51.194;6.614;2023-06-14T09:47:15;9.37;;;2.30;;
5277;SDS011;2662;51.194;6.614;2023-06-14T09:49:42;1.60;;;1.50;;
5277;SDS011;2662;51.194;6.614;2023-06-14T09:52:10;9.73;;;2.00;;
5277;SDS011;2662;51.194;6.614;2023-06-14T09:54:40;4.00;;;1.57;;
5277;SDS011;2662;51.194;6.614;2023-06-14T09:57:10;9.73;;;2.00;;
5277;SDS011;2662;51.194;6.614;2023-06-14T09:59:40;9.73;;;2.40;;
5277;SDS011;2662;51.194;6.614;2023-06-14T10:02:09;3.73;;;2.60;;
5277;SDS011;2662;51.194;6.614;2023-06-14T10:04:46;6.97;;;2.20;;
5277;SDS011;2662;51.194;6.614;2023-06-14T10:07:19;10.37;;;2.30;;
5277;SDS011;2662;51.194;6.614;2023-06-14T10:09:48;1.87;;;1.77;;
5277;SDS011;2662;51.194;6.614;2023-06-14T10:12:17;4.10;;;1.87;;
5277;SDS011;2662;51.194;6.614;2023-06-14T10:14:47;3.00;;;1.60;;
5277;SDS011;2662;51.194;6.614;2023-06-14T10:17:17;5.03;;;2.07;;
5277;SDS011;2662;51.194;6.614;2023-06-14T10:19:50;4.00;;;2.13;;
5277;SDS011;2662;51.194;6.614;2023-06-14T10:22:24;4.83;;;2.10;;
5277;SDS011;2662;51.194;6.614;2023-06-14T10:24:56;6.80;;;1.90;;
5277;SDS011;2662;51.194;6.614;2023-06-14T10:27:24;5.33;;;2.10;;
5277;SDS011;2662;51.194;6.614;2023-06-14T10:30:04;2.37;;;2.17;;
5277;SDS011;2662;51.194;6.614;2023-06-14T10:32:33;4.90;;;2.80;;
5277;SDS011;2662;51.194;6.614;2023-06-14T10:35:00;3.20;;;1.87;;
5277;SDS011;2662;51.194;6.614;2023-06-14T10:37:30;4.87;;;2.30;;
5277;SDS011;2662;51.194;6.614;2023-06-14T10:39:57;4.50;;;2.23;;
5277;SDS011;2662;51.194;6.614;2023-06-14T10:42:29;4.03;;;1.83;;
5277;SDS011;2662;51.194;6.614;2023-06-14T10:44:58;7.27;;;2.47;;
5277;SDS011;2662;51.194;6.614;2023-06-14T10:47:28;6.00;;;2.20;;
5277;SDS011;2662;51.194;6.614;2023-06-14T10:49:57;3.33;;;1.90;;
5277;SDS011;2662;51.194;6.614;2023-06-14T10:52:33;11.50;;;1.87;;
5277;SDS011;2662;51.194;6.614;2023-06-14T10:55:05;1.97;;;1.87;;
5277;SDS011;2662;51.194;6.614;2023-06-14T10:57:37;2.10;;;1.83;;
5277;SDS011;2662;51.194;6.614;2023-06-14T11:00:06;3.40;;;1.80;;
5277;SDS011;2662;51.194;6.614;2023-06-14T11:02:46;7.30;;;1.90;;
5277;SDS011;2662;51.194;6.614;2023-06-14T11:05:23;2.00;;;1.90;;
5277;SDS011;2662;51.194;6.614;2023-06-14T11:07:55;3.63;;;1.70;;
5277;SDS011;2662;51.194;6.614;2023-06-14T11:10:37;3.27;;;1.50;;
5277;SDS011;2662;51.194;6.614;2023-06-14T11:13:06;4.17;;;2.00;;
5277;SDS011;2662;51.194;6.614;2023-06-14T11:15:34;1.70;;;1.60;;
5277;SDS011;2662;51.194;6.614;2023-06-14T11:18:01;2.50;;;1.60;;
5277;SDS011;2662;51.194;6.614;2023-06-14T11:20:30;2.03;;;1.87;;
5277;SDS011;2662;51.194;6.614;2023-06-14T11:22:57;1.30;;;1.20;;
5277;SDS011;2662;51.194;6.614;2023-06-14T11:25:25;3.50;;;2.07;;
5277;SDS011;2662;51.194;6.614;2023-06-14T11:27:53;1.77;;;1.67;;
5277;SDS011;2662;51.194;6.614;2023-06-14T11:30:21;5.33;;;2.00;;
5277;SDS011;2662;51.194;6.614;2023-06-14T11:32:48;2.60;;;1.60;;
5277;SDS011;2662;51.194;6.614;2023-06-14T11:35:17;2.10;;;1.90;;
5277;SDS011;2662;51.194;6.614;2023-06-14T11:37:44;2.20;;;1.70;;
5277;SDS011;2662;51.194;6.614;2023-06-14T11:40:12;6.90;;;1.80;;
5277;SDS011;2662;51.194;6.614;2023-06-14T11:42:40;4.27;;;1.93;;
5277;SDS011;2662;51.194;6.614;2023-06-14T11:45:07;2.93;;;1.87;;
5277;SDS011;2662;51.194;6.614;2023-06-14T11:47:37;5.40;;;2.20;;
5277;SDS011;2662;51.194;6.614;2023-06-14T11:50:05;10.23;;;1.70;;
5277;SDS011;2662;51.194;6.614;2023-06-14T11:52:33;4.53;;;2.07;;
5277;SDS011;2662;51.194;6.614;2023-06-14T11:55:00;6.30;;;2.00;;
5277;SDS011;2662;51.194;6.614;2023-06-14T11:57:29;7.50;;;2.63;;
5277;SDS011;2662;51.194;6.614;2023-06-14T11:59:56;7.90;;;2.53;;
5277;SDS011;2662;51.194;6.614;2023-06-14T12:02:23;3.73;;;2.10;;
5277;SDS011;2662;51.194;6.614;2023-06-14T12:04:54;7.00;;;2.63;;
5277;SDS011;2662;51.194;6.614;2023-06-14T12:07:21;2.43;;;2.27;;
5277;SDS011;2662;51.194;6.614;2023-06-14T12:10:04;5.20;;;2.20;;
5277;SDS011;2662;51.194;6.614;2023-06-14T12:12:34;3.40;;;1.80;;
5277;SDS011;2662;51.194;6.614;2023-06-14T12:15:03;7.50;;;1.63;;
5277;SDS011;2662;51.194;6.614;2023-06-14T12:17:31;2.53;;;2.20;;
5277;SDS011;2662;51.194;6.614;2023-06-14T12:20:04;6.50;;;2.10;;
5277;SDS011;2662;51.194;6.614;2023-06-14T12:22:34;5.77;;;2.03;;
5277;SDS011;2662;51.194;6.614;2023-06-14T12:25:01;3.13;;;1.87;;
5277;SDS011;2662;51.194;6.614;2023-06-14T12:27:28;2.60;;;1.80;;
5277;SDS011;2662;51.194;6.614;2023-06-14T12:29:59;2.03;;;1.67;;
5277;SDS011;2662;51.194;6.614;2023-06-14T12:32:26;1.90;;;1.80;;
5277;SDS011;2662;51.194;6.614;2023-06-14T12:34:53;2.30;;;1.87;;
5277;SDS011;2662;51.194;6.614;2023-06-14T12:37:21;2.10;;;1.80;;
5277;SDS011;2662;51.194;6.614;2023-06-14T12:39:48;4.70;;;1.93;;
5277;SDS011;2662;51.194;6.614;2023-06-14T12:42:15;3.10;;;1.70;;
5277;SDS011;2662;51.194;6.614;2023-06-14T12:44:43;10.50;;;2.00;;
5277;SDS011;2662;51.194;6.614;2023-06-14T12:47:10;4.40;;;1.97;;
5277;SDS011;2662;51.194;6.614;2023-06-14T12:49:36;4.87;;;1.63;;
5277;SDS011;2662;51.194;6.614;2023-06-14T12:52:05;7.40;;;1.50;;
5277;SDS011;2662;51.194;6.614;2023-06-14T12:54:33;3.10;;;1.70;;
5277;SDS011;2662;51.194;6.614;2023-06-14T12:57:00;1.87;;;1.77;;
5277;SDS011;2662;51.194;6.614;2023-06-14T12:59:28;2.20;;;1.60;;
5277;SDS011;2662;51.194;6.614;2023-06-14T13:01:58;1.90;;;1.80;;
5277;SDS011;2662;51.194;6.614;2023-06-14T13:04:25;3.53;;;1.47;;
5277;SDS011;2662;51.194;6.614;2023-06-14T13:06:52;5.60;;;1.40;;
5277;SDS011;2662;51.194;6.614;2023-06-14T13:09:19;2.90;;;1.97;;
5277;SDS011;2662;51.194;6.614;2023-06-14T13:11:47;2.40;;;1.70;;
5277;SDS011;2662;51.194;6.614;2023-06-14T13:14:14;10.40;;;2.53;;
5277;SDS011;2662;51.194;6.614;2023-06-14T13:16:41;2.90;;;1.70;;
5277;SDS011;2662;51.194;6.614;2023-06-14T13:19:08;4.43;;;1.70;;
5277;SDS011;2662;51.194;6.614;2023-06-14T13:21:34;1.87;;;1.50;;
5277;SDS011;2662;51.194;6.614;2023-06-14T13:24:01;2.10;;;1.60;;
5277;SDS011;2662;51.194;6.614;2023-06-14T13:26:28;8.47;;;1.73;;
5277;SDS011;2662;51.194;6.614;2023-06-14T13:28:56;2.80;;;1.50;;
5277;SDS011;2662;51.194;6.614;2023-06-14T13:31:23;3.90;;;1.57;;
5277;SDS011;2662;51.194;6.614;2023-06-14T13:33:49;6.03;;;1.63;;
5277;SDS011;2662;51.194;6.614;2023-06-14T13:36:16;2.60;;;1.30;;
5277;SDS011;2662;51.194;6.614;2023-06-14T13:38:43;8.37;;;1.70;;
5277;SDS011;2662;51.194;6.614;2023-06-14T13:41:10;1.70;;;1.60;;
5277;SDS011;2662;51.194;6.614;2023-06-14T13:43:36;4.03;;;1.63;;
5277;SDS011;2662;51.194;6.614;2023-06-14T13:46:04;1.73;;;1.50;;
5277;SDS011;2662;51.194;6.614;2023-06-14T13:48:31;1.90;;;1.70;;
5277;SDS011;2662;51.194;6.614;2023-06-14T13:50:59;2.63;;;1.60;;
5277;SDS011;2662;51.194;6.614;2023-06-14T13:53:26;6.93;;;1.80;;
5277;SDS011;2662;51.194;6.614;2023-06-14T13:55:52;5.33;;;2.00;;
5277;SDS011;2662;51.194;6.614;2023-06-14T13:58:19;1.80;;;1.70;;
5277;SDS011;2662;51.194;6.614;2023-06-14T14:00:46;2.20;;;1.50;;
5277;SDS011;2662;51.194;6.614;2023-06-14T14:03:14;6.83;;;1.70;;
5277;SDS011;2662;51.194;6.614;2023-06-14T14:05:41;2.07;;;1.77;;
5277;SDS011;2662;51.194;6.614;2023-06-14T14:08:07;3.10;;;1.83;;
5277;SDS011;2662;51.194;6.614;2023-06-14T14:10:34;2.00;;;1.77;;
5277;SDS011;2662;51.194;6.614;2023-06-14T14:13:01;4.87;;;1.77;;
5277;SDS011;2662;51.194;6.614;2023-06-14T14:15:28;17.00;;;2.30;;
5277;SDS011;2662;51.194;6.614;2023-06-14T14:17:55;3.40;;;2.30;;
5277;SDS011;2662;51.194;6.614;2023-06-14T14:20:23;4.53;;;2.17;;
5277;SDS011;2662;51.194;6.614;2023-06-14T14:22:50;3.00;;;1.77;;
5277;SDS011;2662;51.194;6.614;2023-06-14T14:25:17;2.30;;;2.10;;
5277;SDS011;2662;51.194;6.614;2023-06-14T14:27:43;4.60;;;2.60;;
5277;SDS011;2662;51.194;6.614;2023-06-14T14:30:11;4.60;;;1.90;;
5277;SDS011;2662;51.194;6.614;2023-06-14T14:32:38;13.87;;;2.20;;
5277;SDS011;2662;51.194;6.614;2023-06-14T14:35:06;2.77;;;2.00;;
5277;SDS011;2662;51.194;6.614;2023-06-14T14:37:35;4.93;;;2.30;;
5277;SDS011;2662;51.194;6.614;2023-06-14T14:40:01;6.10;;;2.23;;
5277;SDS011;2662;51.194;6.614;2023-06-14T14:42:28;7.73;;;1.90;;
5277;SDS011;2662;51.194;6.614;2023-06-14T14:44:55;1.97;;;1.87;;
5277;SDS011;2662;51.194;6.614;2023-06-14T14:47:22;4.67;;;1.93;;
5277;SDS011;2662;51.194;6.614;2023-06-14T14:49:49;2.13;;;1.83;;
5277;SDS011;2662;51.194;6.614;2023-06-14T14:52:15;5.83;;;2.20;;
5277;SDS011;2662;51.194;6.614;2023-06-14T14:54:44;9.00;;;2.33;;
5277;SDS011;2662;51.194;6.614;2023-06-14T14:57:10;13.73;;;2.40;;
5277;SDS011;2662;51.194;6.614;2023-06-14T14:59:37;3.70;;;2.57;;
5277;SDS011;2662;51.194;6.614;2023-06-14T15:02:04;4.80;;;2.13;;
5277;SDS011;2662;51.194;6.614;2023-06-14T15:04:31;18.00;;;2.60;;
5277;SDS011;2662;51.194;6.614;2023-06-14T15:06:58;2.10;;;2.00;;
5277;SDS011;2662;51.194;6.614;2023-06-14T15:09:25;18.83;;;2.50;;
5277;SDS011;2662;51.194;6.614;2023-06-14T15:11:53;6.57;;;2.50;;
5277;SDS011;2662;51.194;6.614;2023-06-14T15:14:19;9.43;;;2.90;;
5277;SDS011;2662;51.194;6.614;2023-06-14T15:16:46;16.60;;;2.37;;